sensor_id;sensor_type;location;lat;lon;timestamp;temperature;humidity
14850;DHT22;7517;48.400;11.770;2022-09-09T00:01:07;17.90;73.20
14850;DHT22;7517;48.400;11.770;2022-09-09T00:03:43;17.90;73.50
14850;DHT22;7517;48.400;11.770;2022-09-09T00:06:24;17.90;73.50
14850;DHT22;7517;48.400;11.770;2022-09-09T00:09:02;17.90;73.50
14850;DHT22;7517;48.400;11.770;2022-09-09T00:11:42;17.90;73.50
14850;DHT22;7517;48.400;11.770;2022-09-09T00:14:18;17.90;73.50
14850;DHT22;7517;48.400;11.770;2022-09-09T00:16:55;17.90;73.40
14850;DHT22;7517;48.400;11.770;2022-09-09T00:19:31;17.80;73.40
14850;DHT22;7517;48.400;11.770;2022-09-09T00:22:14;17.80;73.30
14850;DHT22;7517;48.400;11.770;2022-09-09T00:24:46;17.80;73.50
14850;DHT22;7517;48.400;11.770;2022-09-09T00:27:23;17.80;73.40
14850;DHT22;7517;48.400;11.770;2022-09-09T00:30:12;17.80;73.50
14850;DHT22;7517;48.400;11.770;2022-09-09T00:32:41;17.80;73.70
14850;DHT22;7517;48.400;11.770;2022-09-09T00:35:16;17.70;73.80
14850;DHT22;7517;48.400;11.770;2022-09-09T00:37:48;17.70;74.00
14850;DHT22;7517;48.400;11.770;2022-09-09T00:40:24;17.70;73.90
14850;DHT22;7517;48.400;11.770;2022-09-09T00:43:19;17.70;73.90
14850;DHT22;7517;48.400;11.770;2022-09-09T00:49:02;17.70;74.00
14850;DHT22;7517;48.400;11.770;2022-09-09T00:51:44;17.70;73.90
14850;DHT22;7517;48.400;11.770;2022-09-09T00:54:39;17.70;73.90
14850;DHT22;7517;48.400;11.770;2022-09-09T00:57:23;17.70;74.00
14850;DHT22;7517;48.400;11.770;2022-09-09T00:59:58;17.70;73.90
14850;DHT22;7517;48.400;11.770;2022-09-09T01:02:55;17.70;73.90
14850;DHT22;7517;48.400;11.770;2022-09-09T01:05:41;17.70;74.30
14850;DHT22;7517;48.400;11.770;2022-09-09T01:08:22;17.60;74.40
14850;DHT22;7517;48.400;11.770;2022-09-09T01:11:10;17.60;74.80
14850;DHT22;7517;48.400;11.770;2022-09-09T01:13:52;17.70;74.80
14850;DHT22;7517;48.400;11.770;2022-09-09T01:16:26;17.70;74.60
14850;DHT22;7517;48.400;11.770;2022-09-09T01:18:57;17.70;74.50
14850;DHT22;7517;48.400;11.770;2022-09-09T01:21:34;17.70;74.50
14850;DHT22;7517;48.400;11.770;2022-09-09T01:24:22;17.70;74.40
14850;DHT22;7517;48.400;11.770;2022-09-09T01:26:57;17.70;74.20
14850;DHT22;7517;48.400;11.770;2022-09-09T01:29:27;17.70;74.10
14850;DHT22;7517;48.400;11.770;2022-09-09T01:31:56;17.60;73.90
14850;DHT22;7517;48.400;11.770;2022-09-09T01:34:28;17.60;74.50
14850;DHT22;7517;48.400;11.770;2022-09-09T01:37:01;17.60;73.80
14850;DHT22;7517;48.400;11.770;2022-09-09T01:39:30;17.60;74.40
14850;DHT22;7517;48.400;11.770;2022-09-09T01:42:00;17.60;73.60
14850;DHT22;7517;48.400;11.770;2022-09-09T01:44:28;17.60;73.60
14850;DHT22;7517;48.400;11.770;2022-09-09T01:46:56;17.60;73.60
14850;DHT22;7517;48.400;11.770;2022-09-09T01:49:24;17.50;73.60
14850;DHT22;7517;48.400;11.770;2022-09-09T01:51:53;17.50;74.40
14850;DHT22;7517;48.400;11.770;2022-09-09T01:54:24;17.50;73.90
14850;DHT22;7517;48.400;11.770;2022-09-09T01:57:02;17.50;73.90
14850;DHT22;7517;48.400;11.770;2022-09-09T01:59:54;17.50;74.00
14850;DHT22;7517;48.400;11.770;2022-09-09T02:02:32;17.50;74.40
14850;DHT22;7517;48.400;11.770;2022-09-09T02:05:14;17.50;74.90
14850;DHT22;7517;48.400;11.770;2022-09-09T02:07:55;17.50;74.20
14850;DHT22;7517;48.400;11.770;2022-09-09T02:10:30;17.50;74.10
14850;DHT22;7517;48.400;11.770;2022-09-09T02:13:07;17.40;74.00
14850;DHT22;7517;48.400;11.770;2022-09-09T02:15:42;17.40;74.00
14850;DHT22;7517;48.400;11.770;2022-09-09T02:18:17;17.40;74.10
14850;DHT22;7517;48.400;11.770;2022-09-09T02:20:51;17.40;74.40
14850;DHT22;7517;48.400;11.770;2022-09-09T02:23:21;17.40;74.60
14850;DHT22;7517;48.400;11.770;2022-09-09T02:25:48;17.40;74.80
14850;DHT22;7517;48.400;11.770;2022-09-09T02:28:21;17.40;75.70
14850;DHT22;7517;48.400;11.770;2022-09-09T02:30:52;17.50;75.20
14850;DHT22;7517;48.400;11.770;2022-09-09T02:33:23;17.50;75.10
14850;DHT22;7517;48.400;11.770;2022-09-09T02:35:52;17.50;75.00
14850;DHT22;7517;48.400;11.770;2022-09-09T02:38:29;17.50;75.00
14850;DHT22;7517;48.400;11.770;2022-09-09T02:41:00;17.50;74.90
14850;DHT22;7517;48.400;11.770;2022-09-09T02:43:32;17.50;74.80
14850;DHT22;7517;48.400;11.770;2022-09-09T02:46:20;17.50;74.90
14850;DHT22;7517;48.400;11.770;2022-09-09T02:48:59;17.50;75.20
14850;DHT22;7517;48.400;11.770;2022-09-09T02:51:35;17.50;75.10
14850;DHT22;7517;48.400;11.770;2022-09-09T02:54:13;17.60;75.10
14850;DHT22;7517;48.400;11.770;2022-09-09T02:56:51;17.60;74.90
14850;DHT22;7517;48.400;11.770;2022-09-09T02:59:21;17.60;74.70
14850;DHT22;7517;48.400;11.770;2022-09-09T03:01:49;17.50;74.50
14850;DHT22;7517;48.400;11.770;2022-09-09T03:04:16;17.50;74.30
14850;DHT22;7517;48.400;11.770;2022-09-09T03:06:43;17.50;74.10
14850;DHT22;7517;48.400;11.770;2022-09-09T03:09:10;17.50;74.10
14850;DHT22;7517;48.400;11.770;2022-09-09T03:11:37;17.50;74.00
14850;DHT22;7517;48.400;11.770;2022-09-09T03:14:05;17.50;73.90
14850;DHT22;7517;48.400;11.770;2022-09-09T03:16:33;17.50;73.90
14850;DHT22;7517;48.400;11.770;2022-09-09T03:19:01;17.40;73.70
14850;DHT22;7517;48.400;11.770;2022-09-09T03:21:28;17.40;73.80
14850;DHT22;7517;48.400;11.770;2022-09-09T03:23:55;17.40;73.80
14850;DHT22;7517;48.400;11.770;2022-09-09T03:26:22;17.40;73.80
14850;DHT22;7517;48.400;11.770;2022-09-09T03:28:50;17.40;73.80
14850;DHT22;7517;48.400;11.770;2022-09-09T03:31:18;17.30;73.80
14850;DHT22;7517;48.400;11.770;2022-09-09T03:33:46;17.30;74.00
14850;DHT22;7517;48.400;11.770;2022-09-09T03:36:13;17.30;74.10
14850;DHT22;7517;48.400;11.770;2022-09-09T03:38:41;17.30;74.30
14850;DHT22;7517;48.400;11.770;2022-09-09T03:41:08;17.30;74.50
14850;DHT22;7517;48.400;11.770;2022-09-09T03:43:35;17.30;74.70
14850;DHT22;7517;48.400;11.770;2022-09-09T03:46:03;17.30;74.90
14850;DHT22;7517;48.400;11.770;2022-09-09T03:48:30;17.30;75.00
14850;DHT22;7517;48.400;11.770;2022-09-09T03:50:59;17.30;75.10
14850;DHT22;7517;48.400;11.770;2022-09-09T03:53:27;17.30;75.40
14850;DHT22;7517;48.400;11.770;2022-09-09T03:55:55;17.30;75.40
14850;DHT22;7517;48.400;11.770;2022-09-09T03:58:26;17.30;75.50
14850;DHT22;7517;48.400;11.770;2022-09-09T04:00:55;17.40;75.60
14850;DHT22;7517;48.400;11.770;2022-09-09T04:03:23;17.40;75.70
14850;DHT22;7517;48.400;11.770;2022-09-09T04:05:51;17.40;75.80
14850;DHT22;7517;48.400;11.770;2022-09-09T04:08:20;17.40;75.90
14850;DHT22;7517;48.400;11.770;2022-09-09T04:10:48;17.50;76.20
14850;DHT22;7517;48.400;11.770;2022-09-09T04:13:17;17.50;76.20
14850;DHT22;7517;48.400;11.770;2022-09-09T04:15:50;17.50;76.20
14850;DHT22;7517;48.400;11.770;2022-09-09T04:18:18;17.60;76.40
14850;DHT22;7517;48.400;11.770;2022-09-09T04:20:46;17.60;76.20
14850;DHT22;7517;48.400;11.770;2022-09-09T04:23:14;17.60;76.20
14850;DHT22;7517;48.400;11.770;2022-09-09T04:25:45;17.60;76.10
14850;DHT22;7517;48.400;11.770;2022-09-09T04:28:12;17.70;76.30
14850;DHT22;7517;48.400;11.770;2022-09-09T04:30:39;17.60;76.80
14850;DHT22;7517;48.400;11.770;2022-09-09T04:33:07;17.70;76.00
14850;DHT22;7517;48.400;11.770;2022-09-09T04:35:35;17.70;75.90
14850;DHT22;7517;48.400;11.770;2022-09-09T04:38:03;17.70;76.00
14850;DHT22;7517;48.400;11.770;2022-09-09T04:40:33;17.70;75.90
14850;DHT22;7517;48.400;11.770;2022-09-09T04:43:02;17.70;75.90
14850;DHT22;7517;48.400;11.770;2022-09-09T04:45:30;17.70;76.10
14850;DHT22;7517;48.400;11.770;2022-09-09T04:47:57;17.80;76.10
14850;DHT22;7517;48.400;11.770;2022-09-09T04:50:24;17.80;76.40
14850;DHT22;7517;48.400;11.770;2022-09-09T04:52:52;17.80;76.50
14850;DHT22;7517;48.400;11.770;2022-09-09T04:55:19;17.80;76.50
14850;DHT22;7517;48.400;11.770;2022-09-09T04:57:46;17.90;76.70
14850;DHT22;7517;48.400;11.770;2022-09-09T05:00:16;17.90;76.60
14850;DHT22;7517;48.400;11.770;2022-09-09T05:02:44;17.90;76.50
14850;DHT22;7517;48.400;11.770;2022-09-09T05:05:13;17.90;76.20
14850;DHT22;7517;48.400;11.770;2022-09-09T05:07:40;18.00;76.00
14850;DHT22;7517;48.400;11.770;2022-09-09T05:10:08;18.00;75.80
14850;DHT22;7517;48.400;11.770;2022-09-09T05:12:36;18.00;75.70
14850;DHT22;7517;48.400;11.770;2022-09-09T05:15:03;18.00;75.60
14850;DHT22;7517;48.400;11.770;2022-09-09T05:17:33;18.00;75.50
14850;DHT22;7517;48.400;11.770;2022-09-09T05:20:01;18.00;75.40
14850;DHT22;7517;48.400;11.770;2022-09-09T05:22:29;18.00;75.30
14850;DHT22;7517;48.400;11.770;2022-09-09T05:24:56;18.00;75.30
14850;DHT22;7517;48.400;11.770;2022-09-09T05:27:24;18.00;75.30
14850;DHT22;7517;48.400;11.770;2022-09-09T05:29:51;18.00;75.30
14850;DHT22;7517;48.400;11.770;2022-09-09T05:32:18;18.00;75.30
14850;DHT22;7517;48.400;11.770;2022-09-09T05:34:46;18.00;75.40
14850;DHT22;7517;48.400;11.770;2022-09-09T05:37:14;18.00;75.40
14850;DHT22;7517;48.400;11.770;2022-09-09T05:39:42;18.00;75.30
14850;DHT22;7517;48.400;11.770;2022-09-09T05:42:09;18.00;75.40
14850;DHT22;7517;48.400;11.770;2022-09-09T05:44:36;18.00;75.50
14850;DHT22;7517;48.400;11.770;2022-09-09T05:47:04;18.00;75.60
14850;DHT22;7517;48.400;11.770;2022-09-09T05:49:31;18.00;75.50
14850;DHT22;7517;48.400;11.770;2022-09-09T05:52:00;18.00;75.60
14850;DHT22;7517;48.400;11.770;2022-09-09T05:54:29;18.00;75.60
14850;DHT22;7517;48.400;11.770;2022-09-09T05:56:58;18.00;75.70
14850;DHT22;7517;48.400;11.770;2022-09-09T05:59:25;18.00;75.80
14850;DHT22;7517;48.400;11.770;2022-09-09T06:01:52;18.00;76.10
14850;DHT22;7517;48.400;11.770;2022-09-09T06:04:20;18.00;76.30
14850;DHT22;7517;48.400;11.770;2022-09-09T06:06:47;18.00;76.40
14850;DHT22;7517;48.400;11.770;2022-09-09T06:09:16;18.10;76.50
14850;DHT22;7517;48.400;11.770;2022-09-09T06:11:43;18.10;76.60
14850;DHT22;7517;48.400;11.770;2022-09-09T06:14:11;18.10;76.60
14850;DHT22;7517;48.400;11.770;2022-09-09T06:16:38;18.10;76.70
14850;DHT22;7517;48.400;11.770;2022-09-09T06:19:09;18.20;76.80
14850;DHT22;7517;48.400;11.770;2022-09-09T06:21:37;18.20;76.80
14850;DHT22;7517;48.400;11.770;2022-09-09T06:24:06;18.20;77.00
14850;DHT22;7517;48.400;11.770;2022-09-09T06:26:36;18.30;77.30
14850;DHT22;7517;48.400;11.770;2022-09-09T06:29:07;18.30;77.40
14850;DHT22;7517;48.400;11.770;2022-09-09T06:31:36;18.40;77.50
14850;DHT22;7517;48.400;11.770;2022-09-09T06:34:05;18.40;77.50
14850;DHT22;7517;48.400;11.770;2022-09-09T06:36:34;18.50;77.60
14850;DHT22;7517;48.400;11.770;2022-09-09T06:39:03;18.50;77.60
14850;DHT22;7517;48.400;11.770;2022-09-09T06:41:32;18.60;77.70
14850;DHT22;7517;48.400;11.770;2022-09-09T06:44:01;18.60;77.70
14850;DHT22;7517;48.400;11.770;2022-09-09T06:46:30;18.70;77.80
14850;DHT22;7517;48.400;11.770;2022-09-09T06:48:59;18.80;77.80
14850;DHT22;7517;48.400;11.770;2022-09-09T06:51:27;18.80;77.90
14850;DHT22;7517;48.400;11.770;2022-09-09T06:53:57;18.90;77.90
14850;DHT22;7517;48.400;11.770;2022-09-09T06:56:27;18.90;77.90
14850;DHT22;7517;48.400;11.770;2022-09-09T06:58:56;18.90;77.90
14850;DHT22;7517;48.400;11.770;2022-09-09T07:01:29;19.00;78.10
14850;DHT22;7517;48.400;11.770;2022-09-09T07:03:59;19.00;78.10
14850;DHT22;7517;48.400;11.770;2022-09-09T07:06:27;19.10;78.20
14850;DHT22;7517;48.400;11.770;2022-09-09T07:08:57;19.20;78.30
14850;DHT22;7517;48.400;11.770;2022-09-09T07:11:27;19.20;78.30
14850;DHT22;7517;48.400;11.770;2022-09-09T07:13:57;19.30;78.20
14850;DHT22;7517;48.400;11.770;2022-09-09T07:16:26;19.30;78.00
14850;DHT22;7517;48.400;11.770;2022-09-09T07:18:56;19.30;77.90
14850;DHT22;7517;48.400;11.770;2022-09-09T07:21:25;19.40;77.90
14850;DHT22;7517;48.400;11.770;2022-09-09T07:23:54;19.40;77.90
14850;DHT22;7517;48.400;11.770;2022-09-09T07:26:23;19.50;78.00
14850;DHT22;7517;48.400;11.770;2022-09-09T07:28:52;19.50;77.90
14850;DHT22;7517;48.400;11.770;2022-09-09T07:31:21;19.50;77.90
14850;DHT22;7517;48.400;11.770;2022-09-09T07:33:50;19.50;78.10
14850;DHT22;7517;48.400;11.770;2022-09-09T07:36:19;19.60;78.20
14850;DHT22;7517;48.400;11.770;2022-09-09T07:38:51;19.60;78.10
14850;DHT22;7517;48.400;11.770;2022-09-09T07:41:21;19.60;78.00
14850;DHT22;7517;48.400;11.770;2022-09-09T07:43:51;19.70;78.10
14850;DHT22;7517;48.400;11.770;2022-09-09T07:46:20;19.70;78.00
14850;DHT22;7517;48.400;11.770;2022-09-09T07:48:53;19.70;78.20
14850;DHT22;7517;48.400;11.770;2022-09-09T07:51:24;19.70;78.10
14850;DHT22;7517;48.400;11.770;2022-09-09T07:53:54;19.80;78.10
14850;DHT22;7517;48.400;11.770;2022-09-09T07:56:24;19.80;78.10
14850;DHT22;7517;48.400;11.770;2022-09-09T07:58:54;19.80;78.00
14850;DHT22;7517;48.400;11.770;2022-09-09T08:01:24;19.90;78.00
14850;DHT22;7517;48.400;11.770;2022-09-09T08:03:55;19.90;77.90
14850;DHT22;7517;48.400;11.770;2022-09-09T08:06:26;19.90;77.90
14850;DHT22;7517;48.400;11.770;2022-09-09T08:08:53;19.90;77.80
14850;DHT22;7517;48.400;11.770;2022-09-09T08:11:22;19.90;77.70
14850;DHT22;7517;48.400;11.770;2022-09-09T08:13:52;20.00;77.80
14850;DHT22;7517;48.400;11.770;2022-09-09T08:16:21;20.00;77.90
14850;DHT22;7517;48.400;11.770;2022-09-09T08:18:51;20.00;78.30
14850;DHT22;7517;48.400;11.770;2022-09-09T08:21:22;20.00;78.30
14850;DHT22;7517;48.400;11.770;2022-09-09T08:23:54;20.10;78.20
14850;DHT22;7517;48.400;11.770;2022-09-09T08:26:24;20.10;78.20
14850;DHT22;7517;48.400;11.770;2022-09-09T08:28:55;20.10;78.30
14850;DHT22;7517;48.400;11.770;2022-09-09T08:31:25;20.20;78.50
14850;DHT22;7517;48.400;11.770;2022-09-09T08:33:55;20.20;78.30
14850;DHT22;7517;48.400;11.770;2022-09-09T08:36:29;20.20;78.30
14850;DHT22;7517;48.400;11.770;2022-09-09T08:39:04;20.30;78.40
14850;DHT22;7517;48.400;11.770;2022-09-09T08:44:59;20.40;78.70
14850;DHT22;7517;48.400;11.770;2022-09-09T08:47:45;20.40;78.70
14850;DHT22;7517;48.400;11.770;2022-09-09T08:50:26;20.50;78.50
14850;DHT22;7517;48.400;11.770;2022-09-09T08:52:59;20.50;78.10
14850;DHT22;7517;48.400;11.770;2022-09-09T08:55:37;20.50;77.90
14850;DHT22;7517;48.400;11.770;2022-09-09T08:58:12;20.60;78.20
14850;DHT22;7517;48.400;11.770;2022-09-09T09:00:51;20.60;78.10
14850;DHT22;7517;48.400;11.770;2022-09-09T09:03:35;20.60;78.30
14850;DHT22;7517;48.400;11.770;2022-09-09T09:06:25;20.60;78.10
14850;DHT22;7517;48.400;11.770;2022-09-09T09:09:06;20.60;78.30
14850;DHT22;7517;48.400;11.770;2022-09-09T09:11:44;20.70;78.00
14850;DHT22;7517;48.400;11.770;2022-09-09T09:14:18;20.70;77.80
14850;DHT22;7517;48.400;11.770;2022-09-09T09:16:52;20.70;77.80
14850;DHT22;7517;48.400;11.770;2022-09-09T09:19:22;20.80;78.00
14850;DHT22;7517;48.400;11.770;2022-09-09T09:21:57;20.80;77.90
14850;DHT22;7517;48.400;11.770;2022-09-09T09:24:39;20.90;78.10
14850;DHT22;7517;48.400;11.770;2022-09-09T09:27:13;21.00;77.90
14850;DHT22;7517;48.400;11.770;2022-09-09T09:29:43;21.00;77.50
14850;DHT22;7517;48.400;11.770;2022-09-09T09:32:16;21.10;77.60
14850;DHT22;7517;48.400;11.770;2022-09-09T09:34:49;21.10;77.60
14850;DHT22;7517;48.400;11.770;2022-09-09T09:37:25;21.20;77.60
14850;DHT22;7517;48.400;11.770;2022-09-09T09:39:55;21.20;77.60
14850;DHT22;7517;48.400;11.770;2022-09-09T09:42:22;21.30;77.50
14850;DHT22;7517;48.400;11.770;2022-09-09T09:44:50;21.30;77.00
14850;DHT22;7517;48.400;11.770;2022-09-09T09:47:19;21.30;76.90
14850;DHT22;7517;48.400;11.770;2022-09-09T09:49:55;21.40;76.90
14850;DHT22;7517;48.400;11.770;2022-09-09T09:52:27;21.40;76.40
14850;DHT22;7517;48.400;11.770;2022-09-09T09:54:57;21.40;76.40
14850;DHT22;7517;48.400;11.770;2022-09-09T09:57:28;21.50;76.30
14850;DHT22;7517;48.400;11.770;2022-09-09T10:00:04;21.50;75.90
14850;DHT22;7517;48.400;11.770;2022-09-09T10:02:44;21.50;75.30
14850;DHT22;7517;48.400;11.770;2022-09-09T10:05:15;21.50;75.30
14850;DHT22;7517;48.400;11.770;2022-09-09T10:07:45;21.60;75.20
14850;DHT22;7517;48.400;11.770;2022-09-09T10:10:17;21.60;75.20
14850;DHT22;7517;48.400;11.770;2022-09-09T10:12:57;21.60;75.00
14850;DHT22;7517;48.400;11.770;2022-09-09T10:15:39;21.60;74.80
14850;DHT22;7517;48.400;11.770;2022-09-09T10:18:30;21.60;74.60
14850;DHT22;7517;48.400;11.770;2022-09-09T10:21:35;21.60;74.90
14850;DHT22;7517;48.400;11.770;2022-09-09T10:24:38;21.70;75.20
14850;DHT22;7517;48.400;11.770;2022-09-09T10:27:27;21.70;74.90
14850;DHT22;7517;48.400;11.770;2022-09-09T10:30:10;21.70;75.20
14850;DHT22;7517;48.400;11.770;2022-09-09T10:32:48;21.80;74.40
14850;DHT22;7517;48.400;11.770;2022-09-09T10:35:30;21.80;74.10
14850;DHT22;7517;48.400;11.770;2022-09-09T10:38:17;21.80;73.60
14850;DHT22;7517;48.400;11.770;2022-09-09T10:41:06;21.90;74.00
14850;DHT22;7517;48.400;11.770;2022-09-09T10:43:57;21.90;73.30
14850;DHT22;7517;48.400;11.770;2022-09-09T10:47:05;22.00;73.20
14850;DHT22;7517;48.400;11.770;2022-09-09T10:52:23;22.10;73.10
14850;DHT22;7517;48.400;11.770;2022-09-09T10:55:03;22.10;73.30
14850;DHT22;7517;48.400;11.770;2022-09-09T10:57:40;22.10;73.30
14850;DHT22;7517;48.400;11.770;2022-09-09T11:00:17;22.20;73.10
14850;DHT22;7517;48.400;11.770;2022-09-09T11:02:49;22.20;72.50
14850;DHT22;7517;48.400;11.770;2022-09-09T11:05:20;22.20;72.40
14850;DHT22;7517;48.400;11.770;2022-09-09T11:07:54;22.30;72.50
14850;DHT22;7517;48.400;11.770;2022-09-09T11:10:27;22.30;72.50
14850;DHT22;7517;48.400;11.770;2022-09-09T11:13:03;22.40;72.50
14850;DHT22;7517;48.400;11.770;2022-09-09T11:15:41;22.40;72.30
14850;DHT22;7517;48.400;11.770;2022-09-09T11:18:21;22.50;72.40
14850;DHT22;7517;48.400;11.770;2022-09-09T11:20:55;22.50;72.20
14850;DHT22;7517;48.400;11.770;2022-09-09T11:23:29;22.50;72.40
14850;DHT22;7517;48.400;11.770;2022-09-09T11:26:15;22.50;72.10
14850;DHT22;7517;48.400;11.770;2022-09-09T11:28:59;22.60;72.00
14850;DHT22;7517;48.400;11.770;2022-09-09T11:31:45;22.60;71.50
14850;DHT22;7517;48.400;11.770;2022-09-09T11:34:35;22.60;71.40
14850;DHT22;7517;48.400;11.770;2022-09-09T11:40:26;22.70;71.50
14850;DHT22;7517;48.400;11.770;2022-09-09T11:43:04;22.80;71.60
14850;DHT22;7517;48.400;11.770;2022-09-09T11:45:37;22.90;72.70
14850;DHT22;7517;48.400;11.770;2022-09-09T11:48:05;22.90;71.50
14850;DHT22;7517;48.400;11.770;2022-09-09T11:50:58;23.00;71.10
14850;DHT22;7517;48.400;11.770;2022-09-09T11:53:29;23.10;70.70
14850;DHT22;7517;48.400;11.770;2022-09-09T11:56:10;23.20;71.10
14850;DHT22;7517;48.400;11.770;2022-09-09T11:58:43;23.30;71.20
14850;DHT22;7517;48.400;11.770;2022-09-09T12:01:39;23.40;71.30
14850;DHT22;7517;48.400;11.770;2022-09-09T12:04:21;23.50;69.50
14850;DHT22;7517;48.400;11.770;2022-09-09T12:06:58;23.50;69.20
14850;DHT22;7517;48.400;11.770;2022-09-09T12:09:33;23.60;70.00
14850;DHT22;7517;48.400;11.770;2022-09-09T12:12:37;23.70;68.90
14850;DHT22;7517;48.400;11.770;2022-09-09T12:17:56;23.80;67.90
14850;DHT22;7517;48.400;11.770;2022-09-09T12:20:33;23.80;67.90
14850;DHT22;7517;48.400;11.770;2022-09-09T12:26:26;23.90;67.60
14850;DHT22;7517;48.400;11.770;2022-09-09T12:29:08;23.90;67.40
14850;DHT22;7517;48.400;11.770;2022-09-09T12:31:48;23.90;66.90
14850;DHT22;7517;48.400;11.770;2022-09-09T12:34:32;23.90;66.60
14850;DHT22;7517;48.400;11.770;2022-09-09T12:37:13;24.00;65.80
14850;DHT22;7517;48.400;11.770;2022-09-09T12:39:47;24.00;65.90
14850;DHT22;7517;48.400;11.770;2022-09-09T12:42:20;24.00;66.50
14850;DHT22;7517;48.400;11.770;2022-09-09T12:44:56;24.00;66.70
14850;DHT22;7517;48.400;11.770;2022-09-09T12:47:30;24.10;65.80
14850;DHT22;7517;48.400;11.770;2022-09-09T12:50:15;24.10;65.50
14850;DHT22;7517;48.400;11.770;2022-09-09T12:52:46;24.10;65.20
14850;DHT22;7517;48.400;11.770;2022-09-09T12:55:18;24.10;65.30
14850;DHT22;7517;48.400;11.770;2022-09-09T12:57:50;24.10;64.50
14850;DHT22;7517;48.400;11.770;2022-09-09T13:00:20;24.20;64.70
14850;DHT22;7517;48.400;11.770;2022-09-09T13:02:52;24.10;64.30
14850;DHT22;7517;48.400;11.770;2022-09-09T13:05:24;24.20;64.00
14850;DHT22;7517;48.400;11.770;2022-09-09T13:08:01;24.20;63.80
14850;DHT22;7517;48.400;11.770;2022-09-09T13:10:33;24.20;63.00
14850;DHT22;7517;48.400;11.770;2022-09-09T13:13:04;24.20;63.30
14850;DHT22;7517;48.400;11.770;2022-09-09T13:15:37;24.30;63.20
14850;DHT22;7517;48.400;11.770;2022-09-09T13:18:07;24.30;63.60
14850;DHT22;7517;48.400;11.770;2022-09-09T13:20:46;24.30;63.40
14850;DHT22;7517;48.400;11.770;2022-09-09T13:23:15;24.30;63.10
14850;DHT22;7517;48.400;11.770;2022-09-09T13:25:53;24.40;63.40
14850;DHT22;7517;48.400;11.770;2022-09-09T13:28:24;24.40;62.70
14850;DHT22;7517;48.400;11.770;2022-09-09T13:31:00;24.40;62.80
14850;DHT22;7517;48.400;11.770;2022-09-09T13:33:33;24.40;62.40
14850;DHT22;7517;48.400;11.770;2022-09-09T13:36:06;24.50;62.20
14850;DHT22;7517;48.400;11.770;2022-09-09T13:38:37;24.50;62.00
14850;DHT22;7517;48.400;11.770;2022-09-09T13:41:08;24.50;62.10
14850;DHT22;7517;48.400;11.770;2022-09-09T13:43:42;24.50;62.00
14850;DHT22;7517;48.400;11.770;2022-09-09T13:46:26;24.50;61.90
14850;DHT22;7517;48.400;11.770;2022-09-09T13:48:58;24.50;61.80
14850;DHT22;7517;48.400;11.770;2022-09-09T13:51:34;24.50;62.00
14850;DHT22;7517;48.400;11.770;2022-09-09T13:54:04;24.50;61.70
14850;DHT22;7517;48.400;11.770;2022-09-09T13:56:32;24.50;62.30
14850;DHT22;7517;48.400;11.770;2022-09-09T13:59:01;24.50;61.40
14850;DHT22;7517;48.400;11.770;2022-09-09T14:01:29;24.50;61.70
14850;DHT22;7517;48.400;11.770;2022-09-09T14:03:56;24.50;61.60
14850;DHT22;7517;48.400;11.770;2022-09-09T14:06:24;24.50;61.40
14850;DHT22;7517;48.400;11.770;2022-09-09T14:08:53;24.50;61.40
14850;DHT22;7517;48.400;11.770;2022-09-09T14:11:21;24.50;61.10
14850;DHT22;7517;48.400;11.770;2022-09-09T14:13:48;24.50;61.20
14850;DHT22;7517;48.400;11.770;2022-09-09T14:16:18;24.50;61.70
14850;DHT22;7517;48.400;11.770;2022-09-09T14:18:46;24.60;61.40
14850;DHT22;7517;48.400;11.770;2022-09-09T14:21:13;24.60;61.20
14850;DHT22;7517;48.400;11.770;2022-09-09T14:23:41;24.60;60.80
14850;DHT22;7517;48.400;11.770;2022-09-09T14:26:10;24.60;60.90
14850;DHT22;7517;48.400;11.770;2022-09-09T14:28:37;24.50;61.40
14850;DHT22;7517;48.400;11.770;2022-09-09T14:31:06;24.60;61.30
14850;DHT22;7517;48.400;11.770;2022-09-09T14:33:36;24.60;60.80
14850;DHT22;7517;48.400;11.770;2022-09-09T14:36:03;24.60;60.80
14850;DHT22;7517;48.400;11.770;2022-09-09T14:38:32;24.60;60.60
14850;DHT22;7517;48.400;11.770;2022-09-09T14:41:00;24.50;60.30
14850;DHT22;7517;48.400;11.770;2022-09-09T14:43:30;24.50;60.50
14850;DHT22;7517;48.400;11.770;2022-09-09T14:45:59;24.40;60.50
14850;DHT22;7517;48.400;11.770;2022-09-09T14:48:32;24.50;60.50
14850;DHT22;7517;48.400;11.770;2022-09-09T14:51:05;24.40;59.90
14850;DHT22;7517;48.400;11.770;2022-09-09T14:53:34;24.40;59.70
14850;DHT22;7517;48.400;11.770;2022-09-09T14:56:09;24.40;59.90
14850;DHT22;7517;48.400;11.770;2022-09-09T14:58:38;24.40;59.50
14850;DHT22;7517;48.400;11.770;2022-09-09T15:01:07;24.30;59.90
14850;DHT22;7517;48.400;11.770;2022-09-09T15:03:36;24.30;59.80
14850;DHT22;7517;48.400;11.770;2022-09-09T15:06:07;24.30;60.10
14850;DHT22;7517;48.400;11.770;2022-09-09T15:08:37;24.30;60.00
14850;DHT22;7517;48.400;11.770;2022-09-09T15:11:06;24.20;59.70
14850;DHT22;7517;48.400;11.770;2022-09-09T15:13:33;24.20;59.70
14850;DHT22;7517;48.400;11.770;2022-09-09T15:16:08;24.10;59.70
14850;DHT22;7517;48.400;11.770;2022-09-09T15:18:37;24.10;59.50
14850;DHT22;7517;48.400;11.770;2022-09-09T15:21:09;24.10;59.70
14850;DHT22;7517;48.400;11.770;2022-09-09T15:23:36;24.00;59.80
14850;DHT22;7517;48.400;11.770;2022-09-09T15:26:05;24.00;60.20
14850;DHT22;7517;48.400;11.770;2022-09-09T15:28:34;24.00;60.00
14850;DHT22;7517;48.400;11.770;2022-09-09T15:31:08;24.00;60.10
14850;DHT22;7517;48.400;11.770;2022-09-09T15:33:37;23.90;60.20
14850;DHT22;7517;48.400;11.770;2022-09-09T15:36:14;23.90;60.50
14850;DHT22;7517;48.400;11.770;2022-09-09T15:38:42;23.90;60.60
14850;DHT22;7517;48.400;11.770;2022-09-09T15:41:10;23.90;61.10
14850;DHT22;7517;48.400;11.770;2022-09-09T15:43:38;23.90;61.60
14850;DHT22;7517;48.400;11.770;2022-09-09T15:46:23;23.80;61.40
14850;DHT22;7517;48.400;11.770;2022-09-09T15:48:53;23.90;61.40
14850;DHT22;7517;48.400;11.770;2022-09-09T15:51:22;23.90;61.70
14850;DHT22;7517;48.400;11.770;2022-09-09T15:53:55;23.90;61.80
14850;DHT22;7517;48.400;11.770;2022-09-09T15:56:23;23.90;61.50
14850;DHT22;7517;48.400;11.770;2022-09-09T15:58:51;23.90;61.20
14850;DHT22;7517;48.400;11.770;2022-09-09T16:01:20;23.90;61.50
14850;DHT22;7517;48.400;11.770;2022-09-09T16:03:47;23.90;61.50
14850;DHT22;7517;48.400;11.770;2022-09-09T16:06:16;24.00;61.60
14850;DHT22;7517;48.400;11.770;2022-09-09T16:08:48;24.00;61.40
14850;DHT22;7517;48.400;11.770;2022-09-09T16:11:19;24.00;61.10
14850;DHT22;7517;48.400;11.770;2022-09-09T16:13:49;24.00;60.80
14850;DHT22;7517;48.400;11.770;2022-09-09T16:16:21;24.00;60.60
14850;DHT22;7517;48.400;11.770;2022-09-09T16:18:51;24.00;60.20
14850;DHT22;7517;48.400;11.770;2022-09-09T16:21:21;24.00;60.20
14850;DHT22;7517;48.400;11.770;2022-09-09T16:23:50;23.90;60.20